Time;durP1;ratioP1;P1;durP2;ratioP2;P2;SDS_P1;SDS_P2;PMS_P1;PMS_P2;Temp;Humidity;BMP_temperature;BMP_pressure;BME280_temperature;BME280_humidity;BME280_pressure;Samples;Min_cycle;Max_cycle;Signal;HPM_P1;HPM_P2
2021/04/20 00:02:11;;;;;;;24.73;18.77;;;;;;;8.24;100.00;99711.09;5055795;28;20033;-65
2021/04/20 00:04:37;;;;;;;27.42;19.60;;;;;;;8.46;100.00;99732.88;5055650;28;20061;-66
2021/04/20 00:07:03;;;;;;;25.52;18.33;;;;;;;7.99;100.00;99662.63;5055354;28;20028;-65
2021/04/20 00:09:28;;;;;;;20.67;16.08;;;;;;;8.42;100.00;99734.06;5055433;28;20060;-65
2021/04/20 00:11:54;;;;;;;22.08;15.82;;;;;;;8.53;100.00;99739.25;5055878;28;20025;-65
2021/04/20 00:14:19;;;;;;;19.60;14.30;;;;;;;8.34;100.00;99712.97;5054204;28;20029;-65
2021/04/20 00:16:45;;;;;;;17.30;12.80;;;;;;;8.52;100.00;99741.03;5055337;28;20021;-65
2021/04/20 00:19:11;;;;;;;18.25;11.50;;;;;;;8.51;100.00;99744.59;5055329;28;20072;-67
2021/04/20 00:21:36;;;;;;;14.48;11.02;;;;;;;8.53;100.00;99747.06;5055327;28;20416;-65
2021/04/20 00:24:02;;;;;;;14.63;10.25;;;;;;;8.36;100.00;99708.44;5055731;28;20029;-65
2021/04/20 00:26:27;;;;;;;16.23;10.10;;;;;;;8.32;100.00;99709.63;5054577;28;20017;-66
2021/04/20 00:28:53;;;;;;;15.02;10.30;;;;;;;8.49;100.00;99741.28;5054573;28;20503;-66
2021/04/20 00:31:19;;;;;;;12.68;10.02;;;;;;;8.52;100.00;99742.81;5053155;28;20025;-66
2021/04/20 00:33:44;;;;;;;14.23;9.73;;;;;;;8.50;100.00;99742.09;5054482;28;20407;-65
2021/04/20 00:36:10;;;;;;;12.07;8.93;;;;;;;8.27;100.00;99710.03;5054764;28;20025;-65
2021/04/20 00:38:36;;;;;;;13.25;8.07;;;;;;;8.46;100.00;99745.94;5054957;28;20091;-65
2021/04/20 00:41:04;;;;;;;13.50;9.80;;;;;;;8.49;100.00;99751.72;5054304;28;20496;-66
2021/04/20 00:43:41;;;;;;;12.90;8.82;;;;;;;8.36;100.00;99724.09;5054192;28;20029;-66
2021/04/20 00:46:11;;;;;;;13.25;8.77;;;;;;;8.40;100.00;99733.34;5052850;28;20040;-66
2021/04/20 00:48:37;;;;;;;15.20;8.70;;;;;;;8.52;100.00;99746.25;5054027;28;20037;-66
2021/04/20 00:51:03;;;;;;;14.30;9.23;;;;;;;8.24;100.00;99718.09;5054207;28;20031;-66
2021/04/20 00:53:29;;;;;;;14.65;8.82;;;;;;;8.29;100.00;99747.25;5054582;28;20029;-65
2021/04/20 00:55:55;;;;;;;12.35;8.25;;;;;;;8.14;100.00;99728.44;5053864;28;20079;-66
2021/04/20 00:58:20;;;;;;;13.23;8.07;;;;;;;8.07;100.00;99724.69;5053946;28;20078;-66
2021/04/20 01:00:48;;;;;;;14.45;7.68;;;;;;;8.33;100.00;99748.66;5052948;28;20080;-66
2021/04/20 01:03:14;;;;;;;13.10;8.13;;;;;;;8.33;100.00;99750.44;5051546;28;20415;-65
2021/04/20 01:05:39;;;;;;;12.00;8.13;;;;;;;8.24;100.00;99736.38;5054576;28;20021;-65
2021/04/20 01:08:07;;;;;;;13.88;7.97;;;;;;;8.38;100.00;99750.94;5054484;28;20025;-65
2021/04/20 01:10:36;;;;;;;10.63;7.30;;;;;;;8.41;100.00;99753.31;5050201;28;20052;-66
2021/04/20 01:13:05;;;;;;;11.18;6.38;;;;;;;8.42;100.00;99750.56;5053763;28;20029;-65
2021/04/20 01:15:32;;;;;;;9.85;6.70;;;;;;;8.52;100.00;99754.09;5066627;28;20052;-66
2021/04/20 01:18:11;;;;;;;9.10;5.57;;;;;;;8.30;100.00;99733.25;5053565;28;20017;-65
2021/04/20 01:20:40;;;;;;;12.70;6.23;;;;;;;8.38;100.00;99753.56;5052434;28;20037;-65
2021/04/20 01:23:09;;;;;;;9.80;6.13;;;;;;;7.87;100.00;99681.91;5051125;28;20255;-65
2021/04/20 01:25:35;;;;;;;10.20;6.75;;;;;;;8.16;100.00;99729.13;5054145;28;20025;-65
2021/04/20 01:28:01;;;;;;;9.30;6.78;;;;;;;8.34;100.00;99765.19;5054036;28;20033;-65
2021/04/20 01:30:27;;;;;;;11.55;7.57;;;;;;;8.32;100.00;99756.63;5054318;28;20028;-65
2021/04/20 01:32:52;;;;;;;9.68;7.03;;;;;;;8.08;100.00;99722.88;5052832;28;20086;-65
2021/04/20 01:35:18;;;;;;;12.50;7.38;;;;;;;8.14;100.00;99736.28;5053970;28;20028;-65
2021/04/20 01:37:43;;;;;;;10.63;7.43;;;;;;;8.08;100.00;99739.38;5053941;28;20504;-65
2021/04/20 01:40:09;;;;;;;11.30;7.68;;;;;;;8.14;100.00;99744.09;5053885;28;20077;-65
2021/04/20 01:42:35;;;;;;;12.60;7.88;;;;;;;8.29;100.00;99761.13;5054341;28;20120;-65
2021/04/20 01:45:05;;;;;;;11.68;7.60;;;;;;;8.22;100.00;99767.81;5053998;28;20025;-65
2021/04/20 01:47:31;;;;;;;12.48;8.45;;;;;;;8.07;100.00;99735.13;5052646;28;20454;-65
2021/04/20 01:49:58;;;;;;;12.57;8.93;;;;;;;8.23;100.00;99766.03;5052429;28;20033;-65
2021/04/20 01:52:24;;;;;;;15.65;8.48;;;;;;;7.80;100.00;99712.88;5053679;28;20029;-65
2021/04/20 01:54:49;;;;;;;14.20;9.05;;;;;;;7.88;100.00;99733.13;5053604;28;20063;-65
2021/04/20 01:57:16;;;;;;;12.23;8.88;;;;;;;8.11;100.00;99767.84;5053498;28;20029;-65
2021/04/20 01:59:41;;;;;;;11.60;9.27;;;;;;;8.07;100.00;99763.81;5052177;28;20024;-65
2021/04/20 02:02:07;;;;;;;13.48;8.88;;;;;;;7.86;100.00;99737.63;5053767;28;20116;-64
2021/04/20 02:04:34;;;;;;;13.00;9.05;;;;;;;7.93;100.00;99759.69;5053297;28;20491;-65
2021/04/20 02:07:00;;;;;;;13.15;9.80;;;;;;;7.92;100.00;99762.41;5053461;28;20025;-65
2021/04/20 02:09:25;;;;;;;12.18;9.13;;;;;;;7.79;100.00;99736.44;5053481;28;20070;-65
2021/04/20 02:11:51;;;;;;;12.55;9.13;;;;;;;7.88;100.00;99734.91;5053512;28;20436;-65
2021/04/20 02:14:16;;;;;;;12.63;9.02;;;;;;;8.03;100.00;99746.72;5053680;28;20063;-65
2021/04/20 02:16:42;;;;;;;13.02;8.65;;;;;;;8.31;100.00;99765.44;5052924;28;20040;-65
2021/04/20 02:19:12;;;;;;;12.13;7.65;;;;;;;8.34;100.00;99767.78;5053215;28;20029;-65
2021/04/20 02:21:39;;;;;;;11.40;8.48;;;;;;;8.04;100.00;99732.75;5053175;28;20622;-65
2021/04/20 02:24:07;;;;;;;11.93;8.80;;;;;;;8.16;100.00;99760.47;5052979;28;20476;-65
2021/04/20 02:26:36;;;;;;;12.63;9.18;;;;;;;7.99;100.00;99740.09;5052937;28;20025;-65
2021/04/20 02:29:05;;;;;;;11.02;8.32;;;;;;;8.04;100.00;99730.97;5052906;28;20098;-65
2021/04/20 02:31:41;;;;;;;12.68;8.35;;;;;;;8.35;100.00;99774.66;5052914;28;20032;-65
2021/04/20 02:34:09;;;;;;;10.05;7.97;;;;;;;8.20;100.00;99741.00;5053050;28;20037;-65
2021/04/20 02:36:39;;;;;;;13.75;8.02;;;;;;;8.27;100.00;99752.63;5052867;28;20079;-65
2021/04/20 02:39:05;;;;;;;10.48;8.13;;;;;;;8.26;100.00;99732.66;5051373;28;20496;-65
2021/04/20 02:41:32;;;;;;;12.32;8.30;;;;;;;8.32;100.00;99761.84;5052782;28;20079;-65
2021/04/20 02:44:00;;;;;;;14.10;8.35;;;;;;;8.50;100.00;99779.53;5052531;28;20443;-65
2021/04/20 02:46:25;;;;;;;10.45;7.95;;;;;;;8.41;100.00;99763.75;5052703;28;20072;-65
2021/04/20 02:48:51;;;;;;;9.30;7.38;;;;;;;8.29;100.00;99753.31;5052643;28;20480;-65
2021/04/20 02:51:17;;;;;;;10.93;7.50;;;;;;;8.34;100.00;99773.03;5052822;28;20491;-65
2021/04/20 02:53:44;;;;;;;11.48;8.30;;;;;;;8.23;100.00;99756.44;5052807;28;20029;-65
2021/04/20 02:56:12;;;;;;;12.05;8.77;;;;;;;8.32;100.00;99775.72;5052563;28;20057;-65
2021/04/20 02:58:38;;;;;;;12.13;8.77;;;;;;;8.21;100.00;99753.09;5052395;28;20032;-65
